sensor_id;sensor_type;location;lat;lon;timestamp;pressure;altitude;pressure_sealevel;temperature;humidity
23281;BME280;11809;56.390;-3.266;2022-07-29T00:01:01;101490.63;;;18.65;64.65
23281;BME280;11809;56.390;-3.266;2022-07-29T00:03:28;101499.53;;;18.64;64.91
23281;BME280;11809;56.390;-3.266;2022-07-29T00:05:55;101495.16;;;18.63;64.55
23281;BME280;11809;56.390;-3.266;2022-07-29T00:08:22;101496.88;;;18.64;64.74
23281;BME280;11809;56.390;-3.266;2022-07-29T00:10:50;101492.50;;;18.63;64.62
23281;BME280;11809;56.390;-3.266;2022-07-29T00:13:17;101496.13;;;18.62;64.87
23281;BME280;11809;56.390;-3.266;2022-07-29T00:15:58;101496.13;;;18.62;64.89
23281;BME280;11809;56.390;-3.266;2022-07-29T00:18:30;101496.13;;;18.62;64.91
23281;BME280;11809;56.390;-3.266;2022-07-29T00:20:57;101498.78;;;18.62;64.72
23281;BME280;11809;56.390;-3.266;2022-07-29T00:23:24;101514.75;;;18.62;64.74
23281;BME280;11809;56.390;-3.266;2022-07-29T00:25:51;101504.09;;;18.62;64.90
23281;BME280;11809;56.390;-3.266;2022-07-29T00:28:18;101501.53;;;18.61;64.80
23281;BME280;11809;56.390;-3.266;2022-07-29T00:30:45;101501.53;;;18.61;64.71
23281;BME280;11809;56.390;-3.266;2022-07-29T00:33:12;101505.06;;;18.61;64.74
23281;BME280;11809;56.390;-3.266;2022-07-29T00:35:39;101502.38;;;18.61;64.66
23281;BME280;11809;56.390;-3.266;2022-07-29T00:38:16;101492.66;;;18.60;64.92
23281;BME280;11809;56.390;-3.266;2022-07-29T00:40:44;101496.19;;;18.61;64.90
23281;BME280;11809;56.390;-3.266;2022-07-29T00:43:13;101492.66;;;18.60;64.98
23281;BME280;11809;56.390;-3.266;2022-07-29T00:45:41;101487.34;;;18.60;64.71
23281;BME280;11809;56.390;-3.266;2022-07-29T00:48:08;101484.69;;;18.60;64.70
23281;BME280;11809;56.390;-3.266;2022-07-29T00:50:36;101488.31;;;18.59;64.71
23281;BME280;11809;56.390;-3.266;2022-07-29T00:53:05;101485.66;;;18.59;64.80
23281;BME280;11809;56.390;-3.266;2022-07-29T00:55:32;101485.66;;;18.59;64.67
23281;BME280;11809;56.390;-3.266;2022-07-29T00:57:59;101486.59;;;18.58;64.88
23281;BME280;11809;56.390;-3.266;2022-07-29T01:00:28;101486.59;;;18.58;64.70
23281;BME280;11809;56.390;-3.266;2022-07-29T01:02:55;101475.06;;;18.58;64.84
23281;BME280;11809;56.390;-3.266;2022-07-29T01:05:24;101474.16;;;18.59;64.82
23281;BME280;11809;56.390;-3.266;2022-07-29T01:08:14;101474.25;;;18.57;64.75
23281;BME280;11809;56.390;-3.266;2022-07-29T01:10:43;101476.91;;;18.57;65.04
23281;BME280;11809;56.390;-3.266;2022-07-29T01:13:10;101472.53;;;18.56;64.77
23281;BME280;11809;56.390;-3.266;2022-07-29T01:15:44;101475.19;;;18.56;64.99
23281;BME280;11809;56.390;-3.266;2022-07-29T01:18:30;101467.31;;;18.55;65.07
23281;BME280;11809;56.390;-3.266;2022-07-29T01:26:52;101466.34;;;18.56;64.99
23281;BME280;11809;56.390;-3.266;2022-07-29T01:29:30;101466.44;;;18.54;64.73
23281;BME280;11809;56.390;-3.266;2022-07-29T01:32:11;101477.09;;;18.54;64.75
23281;BME280;11809;56.390;-3.266;2022-07-29T01:35:08;101466.44;;;18.54;64.99
23281;BME280;11809;56.390;-3.266;2022-07-29T01:37:47;101464.72;;;18.53;64.82
23281;BME280;11809;56.390;-3.266;2022-07-29T01:40:30;101460.31;;;18.52;64.98
23281;BME280;11809;56.390;-3.266;2022-07-29T01:43:05;101469.28;;;18.51;64.98
23281;BME280;11809;56.390;-3.266;2022-07-29T01:45:41;101461.19;;;18.53;64.95
23281;BME280;11809;56.390;-3.266;2022-07-29T01:51:02;101462.16;;;18.52;65.11
23281;BME280;11809;56.390;-3.266;2022-07-29T01:53:39;101467.47;;;18.52;64.87
23281;BME280;11809;56.390;-3.266;2022-07-29T01:56:10;101461.31;;;18.51;65.09
23281;BME280;11809;56.390;-3.266;2022-07-29T01:58:40;101468.31;;;18.52;64.78
23281;BME280;11809;56.390;-3.266;2022-07-29T02:01:10;101463.97;;;18.51;65.06
23281;BME280;11809;56.390;-3.266;2022-07-29T02:03:39;101470.22;;;18.50;65.03
23281;BME280;11809;56.390;-3.266;2022-07-29T02:06:10;101464.91;;;18.50;64.93
23281;BME280;11809;56.390;-3.266;2022-07-29T02:08:39;101464.03;;;18.50;64.96
23281;BME280;11809;56.390;-3.266;2022-07-29T02:11:06;101458.63;;;18.51;65.02
23281;BME280;11809;56.390;-3.266;2022-07-29T02:13:36;101459.56;;;18.50;65.03
23281;BME280;11809;56.390;-3.266;2022-07-29T02:16:06;101463.19;;;18.49;65.00
23281;BME280;11809;56.390;-3.266;2022-07-29T02:18:36;101464.03;;;18.50;64.97
23281;BME280;11809;56.390;-3.266;2022-07-29T02:21:04;101464.03;;;18.50;65.08
23281;BME280;11809;56.390;-3.266;2022-07-29T02:23:40;101474.69;;;18.50;65.02
23281;BME280;11809;56.390;-3.266;2022-07-29T02:26:17;101465.88;;;18.49;64.89
23281;BME280;11809;56.390;-3.266;2022-07-29T02:28:47;101465.06;;;18.47;64.92
23281;BME280;11809;56.390;-3.266;2022-07-29T02:31:17;101463.19;;;18.49;64.91
23281;BME280;11809;56.390;-3.266;2022-07-29T02:33:46;101460.53;;;18.49;64.90
23281;BME280;11809;56.390;-3.266;2022-07-29T02:36:15;101458.81;;;18.48;64.92
23281;BME280;11809;56.390;-3.266;2022-07-29T02:38:43;101457.94;;;18.48;65.01
23281;BME280;11809;56.390;-3.266;2022-07-29T02:41:28;101451.75;;;18.47;65.02
23281;BME280;11809;56.390;-3.266;2022-07-29T02:44:04;101454.44;;;18.47;65.19
23281;BME280;11809;56.390;-3.266;2022-07-29T02:46:34;101449.09;;;18.47;65.14
23281;BME280;11809;56.390;-3.266;2022-07-29T02:52:02;101444.72;;;18.46;64.95
23281;BME280;11809;56.390;-3.266;2022-07-29T02:56:58;101447.38;;;18.46;64.84
23281;BME280;11809;56.390;-3.266;2022-07-29T02:59:27;101442.06;;;18.46;64.92
23281;BME280;11809;56.390;-3.266;2022-07-29T03:01:57;101442.06;;;18.46;64.82
23281;BME280;11809;56.390;-3.266;2022-07-29T03:04:27;101436.72;;;18.46;65.10
23281;BME280;11809;56.390;-3.266;2022-07-29T03:06:57;101445.66;;;18.45;64.86
23281;BME280;11809;56.390;-3.266;2022-07-29T03:09:26;101439.41;;;18.46;65.09
23281;BME280;11809;56.390;-3.266;2022-07-29T03:11:55;101435.00;;;18.45;65.14
23281;BME280;11809;56.390;-3.266;2022-07-29T03:14:23;101443.00;;;18.45;64.90
23281;BME280;11809;56.390;-3.266;2022-07-29T03:16:50;101436.72;;;18.46;65.00
23281;BME280;11809;56.390;-3.266;2022-07-29T03:19:19;101434.16;;;18.45;65.19
23281;BME280;11809;56.390;-3.266;2022-07-29T03:21:47;101438.59;;;18.44;64.95
23281;BME280;11809;56.390;-3.266;2022-07-29T03:26:57;101446.59;;;18.44;64.84
23281;BME280;11809;56.390;-3.266;2022-07-29T03:29:24;101429.69;;;18.45;64.80
23281;BME280;11809;56.390;-3.266;2022-07-29T03:32:00;101439.56;;;18.43;65.01
23281;BME280;11809;56.390;-3.266;2022-07-29T03:34:32;101436.91;;;18.43;65.08
23281;BME280;11809;56.390;-3.266;2022-07-29T03:36:59;101437.78;;;18.44;65.02
23281;BME280;11809;56.390;-3.266;2022-07-29T03:39:29;101435.19;;;18.42;64.98
23281;BME280;11809;56.390;-3.266;2022-07-29T03:41:59;101432.44;;;18.44;64.88
23281;BME280;11809;56.390;-3.266;2022-07-29T03:44:28;101439.56;;;18.43;64.99
23281;BME280;11809;56.390;-3.266;2022-07-29T03:46:57;101433.50;;;18.41;64.84
23281;BME280;11809;56.390;-3.266;2022-07-29T03:49:26;101442.22;;;18.43;65.03
23281;BME280;11809;56.390;-3.266;2022-07-29T03:51:54;101443.16;;;18.42;64.97
23281;BME280;11809;56.390;-3.266;2022-07-29T03:54:22;101439.66;;;18.42;65.05
23281;BME280;11809;56.390;-3.266;2022-07-29T03:56:50;101445.84;;;18.42;65.01
23281;BME280;11809;56.390;-3.266;2022-07-29T03:59:19;101437.84;;;18.42;64.98
23281;BME280;11809;56.390;-3.266;2022-07-29T04:01:47;101429.00;;;18.42;65.09
23281;BME280;11809;56.390;-3.266;2022-07-29T04:04:16;101437.09;;;18.40;65.14
23281;BME280;11809;56.390;-3.266;2022-07-29T04:06:44;101444.13;;;18.41;65.20
23281;BME280;11809;56.390;-3.266;2022-07-29T04:09:14;101442.41;;;18.40;65.22
23281;BME280;11809;56.390;-3.266;2022-07-29T04:11:41;101442.41;;;18.40;64.92
23281;BME280;11809;56.390;-3.266;2022-07-29T04:14:28;101453.91;;;18.41;65.13
23281;BME280;11809;56.390;-3.266;2022-07-29T04:16:55;101445.94;;;18.41;64.97
23281;BME280;11809;56.390;-3.266;2022-07-29T04:19:22;101451.34;;;18.39;65.14
23281;BME280;11809;56.390;-3.266;2022-07-29T04:21:49;101446.00;;;18.39;65.19
23281;BME280;11809;56.390;-3.266;2022-07-29T04:24:16;101434.44;;;18.40;64.90
23281;BME280;11809;56.390;-3.266;2022-07-29T04:26:46;101435.38;;;18.39;65.11
23281;BME280;11809;56.390;-3.266;2022-07-29T04:29:13;101437.09;;;18.40;64.83
23281;BME280;11809;56.390;-3.266;2022-07-29T04:31:41;101435.38;;;18.39;64.94
23281;BME280;11809;56.390;-3.266;2022-07-29T04:34:09;101435.38;;;18.39;65.05
23281;BME280;11809;56.390;-3.266;2022-07-29T04:36:36;101430.03;;;18.39;64.95
23281;BME280;11809;56.390;-3.266;2022-07-29T04:39:03;101436.34;;;18.38;64.91
23281;BME280;11809;56.390;-3.266;2022-07-29T04:41:30;101435.47;;;18.38;64.96
23281;BME280;11809;56.390;-3.266;2022-07-29T04:43:59;101423.03;;;18.38;64.93
23281;BME280;11809;56.390;-3.266;2022-07-29T04:46:27;101431.00;;;18.38;64.94
23281;BME280;11809;56.390;-3.266;2022-07-29T04:48:54;101424.72;;;18.39;65.05
23281;BME280;11809;56.390;-3.266;2022-07-29T04:51:21;101421.31;;;18.37;64.87
23281;BME280;11809;56.390;-3.266;2022-07-29T04:53:48;101423.03;;;18.38;64.97
23281;BME280;11809;56.390;-3.266;2022-07-29T04:56:15;101431.00;;;18.38;64.97
23281;BME280;11809;56.390;-3.266;2022-07-29T04:58:42;101430.16;;;18.38;64.86
23281;BME280;11809;56.390;-3.266;2022-07-29T05:01:09;101427.50;;;18.38;65.12
23281;BME280;11809;56.390;-3.266;2022-07-29T05:03:36;101426.63;;;18.37;65.08
23281;BME280;11809;56.390;-3.266;2022-07-29T05:06:03;101425.75;;;18.37;65.04
23281;BME280;11809;56.390;-3.266;2022-07-29T05:08:30;101423.97;;;18.37;64.96
23281;BME280;11809;56.390;-3.266;2022-07-29T05:10:56;101422.28;;;18.36;64.78
23281;BME280;11809;56.390;-3.266;2022-07-29T05:13:37;101420.44;;;18.37;64.97
23281;BME280;11809;56.390;-3.266;2022-07-29T05:16:12;101422.28;;;18.36;65.27
23281;BME280;11809;56.390;-3.266;2022-07-29T05:18:40;101424.94;;;18.36;65.13
23281;BME280;11809;56.390;-3.266;2022-07-29T05:21:07;101430.25;;;18.36;65.17
23281;BME280;11809;56.390;-3.266;2022-07-29T05:23:34;101424.94;;;18.36;65.07
23281;BME280;11809;56.390;-3.266;2022-07-29T05:26:01;101431.19;;;18.35;64.94
23281;BME280;11809;56.390;-3.266;2022-07-29T05:28:28;101425.00;;;18.35;64.96
23281;BME280;11809;56.390;-3.266;2022-07-29T05:30:55;101432.91;;;18.36;64.91
23281;BME280;11809;56.390;-3.266;2022-07-29T05:33:22;101434.72;;;18.36;64.94
23281;BME280;11809;56.390;-3.266;2022-07-29T05:36:03;101441.84;;;18.35;64.99
23281;BME280;11809;56.390;-3.266;2022-07-29T05:38:32;101442.69;;;18.36;65.13
23281;BME280;11809;56.390;-3.266;2022-07-29T05:40:59;101441.84;;;18.35;65.00
23281;BME280;11809;56.390;-3.266;2022-07-29T05:43:28;101441.84;;;18.35;65.18
23281;BME280;11809;56.390;-3.266;2022-07-29T05:45:56;101441.84;;;18.35;65.18
23281;BME280;11809;56.390;-3.266;2022-07-29T05:48:23;101440.97;;;18.35;65.26
23281;BME280;11809;56.390;-3.266;2022-07-29T05:50:50;101437.44;;;18.34;65.11
23281;BME280;11809;56.390;-3.266;2022-07-29T05:53:17;101439.19;;;18.35;65.02
23281;BME280;11809;56.390;-3.266;2022-07-29T05:55:47;101445.44;;;18.34;65.23
23281;BME280;11809;56.390;-3.266;2022-07-29T05:58:14;101444.56;;;18.34;65.06
23281;BME280;11809;56.390;-3.266;2022-07-29T06:00:42;101442.78;;;18.34;65.16
23281;BME280;11809;56.390;-3.266;2022-07-29T06:03:08;101443.75;;;18.33;64.90
23281;BME280;11809;56.390;-3.266;2022-07-29T06:05:36;101446.41;;;18.33;65.13
23281;BME280;11809;56.390;-3.266;2022-07-29T06:08:03;101447.22;;;18.34;65.21
23281;BME280;11809;56.390;-3.266;2022-07-29T06:10:33;101442.88;;;18.33;65.20
23281;BME280;11809;56.390;-3.266;2022-07-29T06:13:01;101440.22;;;18.33;65.21
23281;BME280;11809;56.390;-3.266;2022-07-29T06:15:28;101442.88;;;18.33;65.15
23281;BME280;11809;56.390;-3.266;2022-07-29T06:17:55;101444.56;;;18.34;65.15
23281;BME280;11809;56.390;-3.266;2022-07-29T06:20:25;101443.81;;;18.32;64.78
23281;BME280;11809;56.390;-3.266;2022-07-29T06:22:53;101441.06;;;18.33;64.96
23281;BME280;11809;56.390;-3.266;2022-07-29T06:25:20;101442.88;;;18.33;65.03
23281;BME280;11809;56.390;-3.266;2022-07-29T06:27:47;101436.69;;;18.32;65.15
23281;BME280;11809;56.390;-3.266;2022-07-29T06:30:14;101428.72;;;18.32;65.01
23281;BME280;11809;56.390;-3.266;2022-07-29T06:32:41;101433.94;;;18.34;65.16
23281;BME280;11809;56.390;-3.266;2022-07-29T06:35:09;101430.50;;;18.32;64.99
23281;BME280;11809;56.390;-3.266;2022-07-29T06:37:55;101441.06;;;18.33;65.04
23281;BME280;11809;56.390;-3.266;2022-07-29T06:40:25;101440.22;;;18.33;65.23
23281;BME280;11809;56.390;-3.266;2022-07-29T06:43:11;101441.16;;;18.32;65.33
23281;BME280;11809;56.390;-3.266;2022-07-29T06:45:38;101444.56;;;18.34;65.21
23281;BME280;11809;56.390;-3.266;2022-07-29T06:48:08;101442.00;;;18.32;65.17
23281;BME280;11809;56.390;-3.266;2022-07-29T06:50:36;101451.72;;;18.33;65.35
23281;BME280;11809;56.390;-3.266;2022-07-29T06:53:03;101451.72;;;18.33;65.14
23281;BME280;11809;56.390;-3.266;2022-07-29T06:55:30;101449.06;;;18.33;65.36
23281;BME280;11809;56.390;-3.266;2022-07-29T06:57:57;101450.88;;;18.33;65.37
23281;BME280;11809;56.390;-3.266;2022-07-29T07:00:24;101455.31;;;18.32;65.29
23281;BME280;11809;56.390;-3.266;2022-07-29T07:02:51;101451.72;;;18.33;65.23
23281;BME280;11809;56.390;-3.266;2022-07-29T07:05:19;101450.88;;;18.33;65.29
23281;BME280;11809;56.390;-3.266;2022-07-29T07:07:45;101451.72;;;18.33;65.21
23281;BME280;11809;56.390;-3.266;2022-07-29T07:10:12;101457.03;;;18.33;65.07
23281;BME280;11809;56.390;-3.266;2022-07-29T07:12:39;101455.22;;;18.34;65.27
23281;BME280;11809;56.390;-3.266;2022-07-29T07:15:06;101457.97;;;18.32;65.29
23281;BME280;11809;56.390;-3.266;2022-07-29T07:17:33;101464.16;;;18.33;65.43
23281;BME280;11809;56.390;-3.266;2022-07-29T07:20:00;101467.69;;;18.33;65.26
23281;BME280;11809;56.390;-3.266;2022-07-29T07:22:27;101463.31;;;18.32;65.27
23281;BME280;11809;56.390;-3.266;2022-07-29T07:24:54;101457.97;;;18.32;65.22
23281;BME280;11809;56.390;-3.266;2022-07-29T07:27:21;101458.84;;;18.33;65.29
23281;BME280;11809;56.390;-3.266;2022-07-29T07:29:48;101457.88;;;18.34;65.23
23281;BME280;11809;56.390;-3.266;2022-07-29T07:32:15;101459.72;;;18.33;65.41
23281;BME280;11809;56.390;-3.266;2022-07-29T07:34:43;101462.38;;;18.33;65.47
23281;BME280;11809;56.390;-3.266;2022-07-29T07:37:10;101467.69;;;18.33;65.41
23281;BME280;11809;56.390;-3.266;2022-07-29T07:39:37;101467.69;;;18.33;65.49
23281;BME280;11809;56.390;-3.266;2022-07-29T07:42:04;101464.06;;;18.34;65.77
23281;BME280;11809;56.390;-3.266;2022-07-29T07:44:31;101462.38;;;18.33;65.68
23281;BME280;11809;56.390;-3.266;2022-07-29T07:47:12;101460.47;;;18.35;65.60
23281;BME280;11809;56.390;-3.266;2022-07-29T07:49:40;101458.75;;;18.34;65.65
23281;BME280;11809;56.390;-3.266;2022-07-29T07:52:10;101454.28;;;18.35;65.40
23281;BME280;11809;56.390;-3.266;2022-07-29T07:54:37;101458.75;;;18.34;65.59
23281;BME280;11809;56.390;-3.266;2022-07-29T07:57:04;101454.28;;;18.35;65.28
23281;BME280;11809;56.390;-3.266;2022-07-29T07:59:31;101450.69;;;18.36;65.39
23281;BME280;11809;56.390;-3.266;2022-07-29T08:01:58;101449.81;;;18.35;65.36
23281;BME280;11809;56.390;-3.266;2022-07-29T08:04:25;101456.00;;;18.36;65.48
23281;BME280;11809;56.390;-3.266;2022-07-29T08:06:55;101449.81;;;18.35;65.16
23281;BME280;11809;56.390;-3.266;2022-07-29T08:09:26;101446.22;;;18.36;65.14
23281;BME280;11809;56.390;-3.266;2022-07-29T08:11:57;101437.28;;;18.37;65.28
23281;BME280;11809;56.390;-3.266;2022-07-29T08:14:25;101439.00;;;18.38;65.33
23281;BME280;11809;56.390;-3.266;2022-07-29T08:16:52;101426.63;;;18.37;65.15
23281;BME280;11809;56.390;-3.266;2022-07-29T08:19:19;101422.06;;;18.39;65.25
23281;BME280;11809;56.390;-3.266;2022-07-29T08:21:46;101422.84;;;18.41;65.14
23281;BME280;11809;56.390;-3.266;2022-07-29T08:24:14;101429.97;;;18.41;64.96
23281;BME280;11809;56.390;-3.266;2022-07-29T08:27:00;101427.19;;;18.42;65.28
23281;BME280;11809;56.390;-3.266;2022-07-29T08:29:27;101427.19;;;18.42;65.10
23281;BME280;11809;56.390;-3.266;2022-07-29T08:31:55;101420.94;;;18.43;65.13
23281;BME280;11809;56.390;-3.266;2022-07-29T08:34:22;101416.38;;;18.45;65.24
23281;BME280;11809;56.390;-3.266;2022-07-29T08:36:53;101419.03;;;18.45;65.08
23281;BME280;11809;56.390;-3.266;2022-07-29T08:39:20;101410.03;;;18.48;64.86
23281;BME280;11809;56.390;-3.266;2022-07-29T08:41:47;101412.69;;;18.48;65.19
23281;BME280;11809;56.390;-3.266;2022-07-29T08:44:23;101415.28;;;18.49;64.91
23281;BME280;11809;56.390;-3.266;2022-07-29T08:46:56;101416.03;;;18.51;65.05
23281;BME280;11809;56.390;-3.266;2022-07-29T08:49:23;101416.81;;;18.53;64.91
23281;BME280;11809;56.390;-3.266;2022-07-29T08:51:51;101417.56;;;18.55;64.96
23281;BME280;11809;56.390;-3.266;2022-07-29T08:54:21;101419.28;;;18.56;65.04
23281;BME280;11809;56.390;-3.266;2022-07-29T08:56:50;101411.28;;;18.56;64.95
23281;BME280;11809;56.390;-3.266;2022-07-29T08:59:22;101405.97;;;18.56;64.84
23281;BME280;11809;56.390;-3.266;2022-07-29T09:01:51;101405.78;;;18.59;64.89
23281;BME280;11809;56.390;-3.266;2022-07-29T09:04:20;101403.78;;;18.63;64.85
23281;BME280;11809;56.390;-3.266;2022-07-29T09:06:51;101407.13;;;18.66;64.63
23281;BME280;11809;56.390;-3.266;2022-07-29T09:09:18;101401.59;;;18.69;64.62
23281;BME280;11809;56.390;-3.266;2022-07-29T09:11:45;101404.16;;;18.71;64.48
23281;BME280;11809;56.390;-3.266;2022-07-29T09:14:13;101405.88;;;18.72;64.70
23281;BME280;11809;56.390;-3.266;2022-07-29T09:16:45;101401.22;;;18.75;64.72
23281;BME280;11809;56.390;-3.266;2022-07-29T09:19:34;101408.25;;;18.76;64.87
23281;BME280;11809;56.390;-3.266;2022-07-29T09:22:06;101407.13;;;18.81;64.85
23281;BME280;11809;56.390;-3.266;2022-07-29T09:24:44;101411.47;;;18.82;64.67
23281;BME280;11809;56.390;-3.266;2022-07-29T09:30:05;101409.19;;;18.90;64.69
23281;BME280;11809;56.390;-3.266;2022-07-29T09:32:33;101415.19;;;18.93;64.62
23281;BME280;11809;56.390;-3.266;2022-07-29T09:35:22;101411.41;;;18.97;64.57
23281;BME280;11809;56.390;-3.266;2022-07-29T09:37:50;101409.56;;;18.98;64.81
23281;BME280;11809;56.390;-3.266;2022-07-29T09:40:21;101405.22;;;18.97;64.39
23281;BME280;11809;56.390;-3.266;2022-07-29T09:42:50;101402.56;;;18.97;64.66
23281;BME280;11809;56.390;-3.266;2022-07-29T09:45:31;101398.16;;;18.96;64.68
23281;BME280;11809;56.390;-3.266;2022-07-29T09:48:00;101394.56;;;18.97;64.54
23281;BME280;11809;56.390;-3.266;2022-07-29T09:50:39;101391.03;;;18.96;64.58
23281;BME280;11809;56.390;-3.266;2022-07-29T09:53:07;101394.38;;;19.00;64.94
23281;BME280;11809;56.390;-3.266;2022-07-29T09:55:51;101401.38;;;19.01;64.40
23281;BME280;11809;56.390;-3.266;2022-07-29T09:58:19;101395.88;;;19.04;64.43
23281;BME280;11809;56.390;-3.266;2022-07-29T10:00:48;101384.16;;;19.06;64.50
23281;BME280;11809;56.390;-3.266;2022-07-29T10:03:17;101388.63;;;19.06;64.34
23281;BME280;11809;56.390;-3.266;2022-07-29T10:05:45;101395.88;;;19.04;64.23
23281;BME280;11809;56.390;-3.266;2022-07-29T10:08:12;101399.50;;;19.03;64.41
23281;BME280;11809;56.390;-3.266;2022-07-29T10:10:42;101398.66;;;19.02;64.38
23281;BME280;11809;56.390;-3.266;2022-07-29T10:13:11;101397.78;;;19.02;64.49
23281;BME280;11809;56.390;-3.266;2022-07-29T10:15:43;101390.75;;;19.01;64.12
23281;BME280;11809;56.390;-3.266;2022-07-29T10:18:14;101397.78;;;19.02;64.40
23281;BME280;11809;56.390;-3.266;2022-07-29T10:20:44;101397.59;;;19.05;64.58
23281;BME280;11809;56.390;-3.266;2022-07-29T10:23:11;101395.69;;;19.07;64.63
23281;BME280;11809;56.390;-3.266;2022-07-29T10:25:39;101405.19;;;19.11;64.50
23281;BME280;11809;56.390;-3.266;2022-07-29T10:28:12;101393.38;;;19.15;64.38
23281;BME280;11809;56.390;-3.266;2022-07-29T10:30:42;101390.53;;;19.18;64.38
23281;BME280;11809;56.390;-3.266;2022-07-29T10:41:34;101367.47;;;19.31;64.09
23281;BME280;11809;56.390;-3.266;2022-07-29T10:44:21;101362.13;;;19.31;64.20
23281;BME280;11809;56.390;-3.266;2022-07-29T10:46:50;101369.19;;;19.32;64.11
23281;BME280;11809;56.390;-3.266;2022-07-29T10:49:19;101362.81;;;19.34;63.86
23281;BME280;11809;56.390;-3.266;2022-07-29T10:52:03;101364.34;;;19.39;64.08
23281;BME280;11809;56.390;-3.266;2022-07-29T10:54:47;101365.06;;;19.41;63.80
23281;BME280;11809;56.390;-3.266;2022-07-29T10:57:29;101362.53;;;19.39;64.02
23281;BME280;11809;56.390;-3.266;2022-07-29T11:00:26;101363.63;;;19.35;63.95
23281;BME280;11809;56.390;-3.266;2022-07-29T11:02:54;101364.81;;;19.31;64.29
23281;BME280;11809;56.390;-3.266;2022-07-29T11:05:23;101365.75;;;19.30;63.96
23281;BME280;11809;56.390;-3.266;2022-07-29T11:11:15;101359.66;;;19.28;64.40
23281;BME280;11809;56.390;-3.266;2022-07-29T11:13:47;101359.66;;;19.28;64.26
23281;BME280;11809;56.390;-3.266;2022-07-29T11:16:19;101357.13;;;19.26;64.28
23281;BME280;11809;56.390;-3.266;2022-07-29T11:19:18;101362.13;;;19.31;63.91
23281;BME280;11809;56.390;-3.266;2022-07-29T11:21:55;101365.34;;;19.36;63.95
23281;BME280;11809;56.390;-3.266;2022-07-29T11:24:28;101364.34;;;19.39;64.02
23281;BME280;11809;56.390;-3.266;2022-07-29T11:27:17;101343.75;;;19.41;63.70
23281;BME280;11809;56.390;-3.266;2022-07-29T11:29:55;101344.22;;;19.47;63.87
23281;BME280;11809;56.390;-3.266;2022-07-29T11:32:25;101337.91;;;19.48;63.86
23281;BME280;11809;56.390;-3.266;2022-07-29T11:35:28;101332.38;;;19.51;63.90
23281;BME280;11809;56.390;-3.266;2022-07-29T11:38:27;101336.09;;;19.49;63.96
23281;BME280;11809;56.390;-3.266;2022-07-29T11:41:19;101338.78;;;19.49;63.81
23281;BME280;11809;56.390;-3.266;2022-07-29T11:49:20;101334.09;;;19.52;64.06
23281;BME280;11809;56.390;-3.266;2022-07-29T11:51:59;101343.16;;;19.50;63.93
23281;BME280;11809;56.390;-3.266;2022-07-29T11:54:33;101337.91;;;19.48;63.98
23281;BME280;11809;56.390;-3.266;2022-07-29T11:57:20;101341.63;;;19.46;64.07
23281;BME280;11809;56.390;-3.266;2022-07-29T11:59:48;101341.63;;;19.46;64.23
23281;BME280;11809;56.390;-3.266;2022-07-29T12:02:16;101333.00;;;19.42;64.29
23281;BME280;11809;56.390;-3.266;2022-07-29T12:05:03;101329.56;;;19.40;64.12
23281;BME280;11809;56.390;-3.266;2022-07-29T12:07:37;101330.44;;;19.41;63.96
23281;BME280;11809;56.390;-3.266;2022-07-29T12:10:10;101334.06;;;19.40;64.01
23281;BME280;11809;56.390;-3.266;2022-07-29T12:12:55;101339.41;;;19.40;64.05
23281;BME280;11809;56.390;-3.266;2022-07-29T12:15:22;101334.22;;;19.36;64.14
23281;BME280;11809;56.390;-3.266;2022-07-29T12:18:14;101331.56;;;19.36;64.26
23281;BME280;11809;56.390;-3.266;2022-07-29T12:20:44;101330.69;;;19.36;64.14
23281;BME280;11809;56.390;-3.266;2022-07-29T12:23:12;101329.75;;;19.37;64.02
23281;BME280;11809;56.390;-3.266;2022-07-29T12:25:43;101329.75;;;19.37;64.11
23281;BME280;11809;56.390;-3.266;2022-07-29T12:28:15;101327.88;;;19.39;64.28
23281;BME280;11809;56.390;-3.266;2022-07-29T12:30:52;101328.81;;;19.38;64.14
23281;BME280;11809;56.390;-3.266;2022-07-29T12:33:29;101320.81;;;19.38;64.19
23281;BME280;11809;56.390;-3.266;2022-07-29T12:36:00;101329.56;;;19.40;63.94
23281;BME280;11809;56.390;-3.266;2022-07-29T12:38:34;101321.47;;;19.42;63.80
23281;BME280;11809;56.390;-3.266;2022-07-29T12:41:03;101323.94;;;19.45;63.85
23281;BME280;11809;56.390;-3.266;2022-07-29T12:43:30;101313.16;;;19.46;63.90
23281;BME280;11809;56.390;-3.266;2022-07-29T12:46:12;101306.91;;;19.47;63.60
23281;BME280;11809;56.390;-3.266;2022-07-29T12:48:41;101297.84;;;19.50;63.81
23281;BME280;11809;56.390;-3.266;2022-07-29T12:51:10;101296.78;;;19.52;63.66
23281;BME280;11809;56.390;-3.266;2022-07-29T12:53:38;101298.50;;;19.53;63.87
23281;BME280;11809;56.390;-3.266;2022-07-29T12:56:06;101294.84;;;19.54;63.32
23281;BME280;11809;56.390;-3.266;2022-07-29T12:59:20;101285.91;;;19.55;63.83
23281;BME280;11809;56.390;-3.266;2022-07-29T13:01:52;101284.84;;;19.58;63.68
23281;BME280;11809;56.390;-3.266;2022-07-29T13:04:33;101281.19;;;19.59;63.68
23281;BME280;11809;56.390;-3.266;2022-07-29T13:07:07;101277.50;;;19.61;63.32
23281;BME280;11809;56.390;-3.266;2022-07-29T13:09:40;101282.31;;;19.81;58.65
23281;BME280;11809;56.390;-3.266;2022-07-29T13:12:09;101287.25;;;19.87;57.42
23281;BME280;11809;56.390;-3.266;2022-07-29T13:14:38;101276.88;;;19.83;57.86
23281;BME280;11809;56.390;-3.266;2022-07-29T13:17:07;101277.53;;;19.86;56.96
23281;BME280;11809;56.390;-3.266;2022-07-29T13:19:49;101285.19;;;19.91;55.95
23281;BME280;11809;56.390;-3.266;2022-07-29T13:22:18;101287.78;;;19.92;55.14
23281;BME280;11809;56.390;-3.266;2022-07-29T13:27:15;101286.72;;;19.95;55.21
23281;BME280;11809;56.390;-3.266;2022-07-29T13:29:42;101290.88;;;19.99;55.28
23281;BME280;11809;56.390;-3.266;2022-07-29T13:32:11;101286.41;;;20.00;54.75
23281;BME280;11809;56.390;-3.266;2022-07-29T13:34:39;101284.47;;;20.02;54.57
23281;BME280;11809;56.390;-3.266;2022-07-29T13:37:06;101292.59;;;20.13;54.94
23281;BME280;11809;56.390;-3.266;2022-07-29T13:39:34;101284.16;;;20.19;54.90